Time;durP1;ratioP1;P1;durP2;ratioP2;P2;SDS_P1;SDS_P2;PMS_P1;PMS_P2;Temp;Humidity;BMP_temperature;BMP_pressure;BME280_temperature;BME280_humidity;BME280_pressure;Samples;Min_cycle;Max_cycle;Signal;HPM_P1;HPM_P2
2022/07/10 00:00:37;;;;;;;9.32;5.72;;;17.30;99.90;;;;;;5013531;28;20029;-60
2022/07/10 00:03:04;;;;;;;6.75;5.18;;;17.30;99.90;;;;;;5016068;28;20496;-61
2022/07/10 00:05:31;;;;;;;8.65;4.93;;;17.30;99.90;;;;;;5011447;28;20026;-61
2022/07/10 00:07:57;;;;;;;7.72;5.38;;;17.20;99.90;;;;;;5011608;28;20037;-61
2022/07/10 00:10:23;;;;;;;7.93;5.22;;;17.20;99.90;;;;;;5012286;28;20037;-61
2022/07/10 00:12:51;;;;;;;8.05;5.47;;;17.10;99.90;;;;;;5012030;28;20055;-61
2022/07/10 00:15:17;;;;;;;8.15;5.47;;;17.10;99.90;;;;;;5025511;28;20091;-61
2022/07/10 00:17:44;;;;;;;7.28;5.30;;;17.10;99.90;;;;;;5012884;28;20033;-61
2022/07/10 00:20:11;;;;;;;9.90;5.47;;;17.00;99.90;;;;;;5018617;28;20481;-60
2022/07/10 00:22:38;;;;;;;9.45;5.82;;;16.90;99.90;;;;;;5015149;28;20124;-61
2022/07/10 00:25:05;;;;;;;10.65;5.75;;;16.90;99.90;;;;;;5023761;28;20842;-61
2022/07/10 00:27:31;;;;;;;11.88;5.75;;;16.90;99.90;;;;;;5016270;28;20038;-61
2022/07/10 00:29:57;;;;;;;9.98;6.38;;;16.90;99.90;;;;;;5015857;28;20033;-61
2022/07/10 00:32:24;;;;;;;10.82;6.30;;;16.80;99.90;;;;;;5015864;28;20084;-61
2022/07/10 00:34:50;;;;;;;8.15;5.93;;;16.80;99.90;;;;;;5010861;28;20038;-61
2022/07/10 00:37:16;;;;;;;10.13;5.85;;;16.70;99.90;;;;;;5015874;28;20080;-61
2022/07/10 00:39:42;;;;;;;8.68;6.40;;;16.70;99.90;;;;;;5020677;28;20450;-61
2022/07/10 00:42:13;;;;;;;13.50;5.80;;;16.70;99.90;;;;;;5009948;28;20040;-61
2022/07/10 00:44:39;;;;;;;11.43;6.13;;;16.60;99.90;;;;;;5012919;28;20034;-61
2022/07/10 00:47:06;;;;;;;10.20;5.90;;;16.50;99.90;;;;;;5008947;28;20038;-61
2022/07/10 00:49:32;;;;;;;8.68;6.22;;;16.50;99.90;;;;;;5010704;28;20033;-61
2022/07/10 00:52:00;;;;;;;11.13;6.80;;;16.40;99.90;;;;;;5021766;28;20033;-61
2022/07/10 00:54:27;;;;;;;9.88;6.30;;;16.30;99.90;;;;;;5015541;28;20060;-61
2022/07/10 00:56:53;;;;;;;13.68;6.15;;;16.20;99.90;;;;;;5014915;28;20038;-60
2022/07/10 00:59:20;;;;;;;8.63;6.47;;;16.10;99.90;;;;;;5011119;28;20041;-60
2022/07/10 01:01:45;;;;;;;10.60;6.05;;;16.20;99.90;;;;;;5009583;28;20033;-61
2022/07/10 01:04:11;;;;;;;9.57;5.88;;;16.10;99.90;;;;;;5010861;28;20022;-61
2022/07/10 01:06:37;;;;;;;8.23;5.78;;;16.00;99.90;;;;;;5009225;28;20437;-61
2022/07/10 01:09:03;;;;;;;9.63;6.07;;;15.90;99.90;;;;;;5010620;28;20026;-61
2022/07/10 01:11:29;;;;;;;8.75;6.00;;;15.80;99.90;;;;;;5011584;28;20093;-61
2022/07/10 01:13:55;;;;;;;12.38;6.93;;;15.80;99.90;;;;;;5010437;28;20072;-62
2022/07/10 01:16:22;;;;;;;11.20;6.57;;;15.70;99.90;;;;;;5009665;28;20426;-61
2022/07/10 01:18:47;;;;;;;10.50;6.75;;;15.70;99.90;;;;;;5009598;28;20030;-61
2022/07/10 01:21:27;;;;;;;12.00;6.97;;;15.70;99.90;;;;;;5009273;28;20086;-61
2022/07/10 01:23:53;;;;;;;10.25;6.63;;;15.80;99.90;;;;;;4998975;28;20401;-62
2022/07/10 01:26:21;;;;;;;11.18;6.75;;;15.70;99.90;;;;;;5010656;28;20046;-61
2022/07/10 01:28:53;;;;;;;9.70;7.32;;;15.60;99.90;;;;;;5011027;28;20502;-61
2022/07/10 01:31:20;;;;;;;11.82;7.00;;;15.60;99.90;;;;;;5010404;28;20030;-61
2022/07/10 01:33:46;;;;;;;12.63;7.38;;;15.60;99.90;;;;;;5011606;28;20463;-61
2022/07/10 01:36:12;;;;;;;10.13;6.50;;;15.60;99.90;;;;;;5009485;28;20044;-60
2022/07/10 01:38:40;;;;;;;12.00;7.40;;;15.60;99.90;;;;;;5010593;28;20380;-61
2022/07/10 01:41:06;;;;;;;11.65;7.78;;;15.50;99.90;;;;;;5010570;28;20124;-61
2022/07/10 01:43:32;;;;;;;11.38;7.53;;;15.50;99.90;;;;;;5010767;28;20486;-61
2022/07/10 01:45:57;;;;;;;11.32;6.25;;;15.50;99.90;;;;;;5008711;28;20022;-61
2022/07/10 01:48:23;;;;;;;9.18;6.40;;;15.40;99.90;;;;;;5010398;28;20167;-61
2022/07/10 01:50:48;;;;;;;11.60;7.70;;;15.40;99.90;;;;;;5015735;28;20029;-61
2022/07/10 01:53:14;;;;;;;12.85;7.63;;;15.40;99.90;;;;;;5030470;28;20030;-61
2022/07/10 01:55:40;;;;;;;10.00;6.97;;;15.40;99.90;;;;;;5017677;28;20057;-61
2022/07/10 01:58:05;;;;;;;10.52;7.22;;;15.40;99.90;;;;;;5009748;28;20030;-61
2022/07/10 02:00:31;;;;;;;11.00;6.50;;;15.40;99.90;;;;;;5012187;28;20079;-60
2022/07/10 02:06:01;;;;;;;10.57;6.75;;;15.30;99.90;;;;;;4948824;28;20035;-61
2022/07/10 02:08:26;;;;;;;9.85;6.75;;;15.20;99.90;;;;;;4949470;29;20046;-61
2022/07/10 02:10:52;;;;;;;11.43;6.80;;;15.20;99.90;;;;;;4976165;28;20066;-61
2022/07/10 02:13:20;;;;;;;11.90;6.57;;;15.10;99.90;;;;;;5008491;28;20033;-61
2022/07/10 02:15:47;;;;;;;10.10;6.70;;;15.20;99.90;;;;;;5009354;28;20034;-61
2022/07/10 02:18:13;;;;;;;11.73;6.88;;;15.20;99.90;;;;;;5024835;28;20033;-61
2022/07/10 02:20:38;;;;;;;9.30;7.07;;;15.20;99.90;;;;;;5013247;28;20368;-61
2022/07/10 02:23:04;;;;;;;9.43;7.00;;;15.20;99.90;;;;;;5008843;28;20096;-61
2022/07/10 02:25:29;;;;;;;11.18;7.40;;;15.10;99.90;;;;;;5009948;28;20030;-61
2022/07/10 02:27:55;;;;;;;10.48;6.97;;;15.10;99.90;;;;;;5009826;28;20496;-61
2022/07/10 02:30:21;;;;;;;12.57;7.80;;;15.10;99.90;;;;;;5008761;28;20113;-61
2022/07/10 02:32:46;;;;;;;10.80;7.80;;;15.10;99.90;;;;;;5020769;28;20472;-61
2022/07/10 02:35:12;;;;;;;12.32;8.00;;;15.10;99.90;;;;;;5007803;28;20025;-61
2022/07/10 02:37:38;;;;;;;12.00;7.65;;;15.20;99.90;;;;;;5009510;28;20376;-61
2022/07/10 02:40:04;;;;;;;10.98;7.93;;;15.10;99.90;;;;;;5006908;28;20084;-61
2022/07/10 02:42:30;;;;;;;11.23;7.40;;;15.10;99.90;;;;;;5009243;28;20561;-61
2022/07/10 02:44:55;;;;;;;12.43;7.30;;;15.10;99.90;;;;;;5013132;28;20037;-61
2022/07/10 02:47:21;;;;;;;11.38;7.55;;;15.10;99.90;;;;;;5029805;28;20034;-61
2022/07/10 02:49:47;;;;;;;10.75;7.25;;;15.10;99.90;;;;;;5010919;28;20117;-61
2022/07/10 02:52:12;;;;;;;12.50;7.80;;;15.10;99.90;;;;;;5009660;28;20030;-61
2022/07/10 02:54:38;;;;;;;10.90;7.55;;;15.10;99.90;;;;;;5009445;28;20046;-61
2022/07/10 02:57:04;;;;;;;12.73;8.30;;;15.10;99.90;;;;;;5008578;28;20042;-61
2022/07/10 02:59:30;;;;;;;14.35;7.97;;;15.00;99.90;;;;;;5009708;28;20057;-61
2022/07/10 03:01:56;;;;;;;13.95;8.38;;;15.00;99.90;;;;;;5008365;28;20080;-61
2022/07/10 03:04:22;;;;;;;12.57;8.68;;;15.00;99.90;;;;;;5007769;28;20056;-61
2022/07/10 03:06:47;;;;;;;13.32;8.75;;;15.00;99.90;;;;;;5007776;28;20092;-61
2022/07/10 03:09:13;;;;;;;12.50;8.02;;;15.00;99.90;;;;;;5009399;28;20256;-60
2022/07/10 03:11:39;;;;;;;12.60;8.45;;;14.90;99.90;;;;;;5007540;28;20037;-60
2022/07/10 03:14:05;;;;;;;12.00;7.80;;;14.80;99.90;;;;;;5009367;28;20049;-61
2022/07/10 03:16:31;;;;;;;15.48;8.75;;;14.80;99.90;;;;;;5015316;28;20052;-61
2022/07/10 03:18:57;;;;;;;14.35;9.18;;;14.70;99.90;;;;;;5022130;28;20037;-61
2022/07/10 03:21:23;;;;;;;17.98;9.32;;;14.70;99.90;;;;;;5011749;28;20099;-61
2022/07/10 03:23:49;;;;;;;17.27;9.82;;;14.70;99.90;;;;;;5009830;28;20045;-61
2022/07/10 03:26:14;;;;;;;13.63;8.88;;;14.70;99.90;;;;;;5007225;28;20038;-61
2022/07/10 03:28:40;;;;;;;16.58;9.63;;;14.60;99.90;;;;;;5008957;28;20029;-61
2022/07/10 03:31:06;;;;;;;14.40;8.80;;;14.60;99.90;;;;;;5011019;28;20030;-61
2022/07/10 03:33:32;;;;;;;14.68;9.48;;;14.60;99.90;;;;;;5008003;28;20136;-61
2022/07/10 03:35:57;;;;;;;16.05;9.25;;;14.50;99.90;;;;;;5008374;28;20053;-61
2022/07/10 03:38:23;;;;;;;16.48;9.45;;;14.50;99.90;;;;;;5008376;28;20054;-60
2022/07/10 03:40:49;;;;;;;16.08;9.20;;;14.50;99.90;;;;;;5009507;28;20054;-61
2022/07/10 03:43:15;;;;;;;17.92;9.40;;;14.40;99.90;;;;;;5008865;28;20084;-61
2022/07/10 03:45:41;;;;;;;16.75;8.82;;;14.40;99.90;;;;;;5006806;28;20034;-61
2022/07/10 03:48:06;;;;;;;13.23;9.45;;;14.40;99.90;;;;;;5007670;28;20029;-61
2022/07/10 03:50:33;;;;;;;13.65;9.05;;;14.40;99.90;;;;;;5007811;28;20459;-61
2022/07/10 03:52:58;;;;;;;15.20;9.15;;;14.30;99.90;;;;;;5010901;28;20030;-61
2022/07/10 03:55:24;;;;;;;14.95;8.85;;;14.30;99.90;;;;;;5010471;28;20433;-61
2022/07/10 03:57:53;;;;;;;13.48;8.18;;;14.30;99.90;;;;;;5010259;28;20076;-61
2022/07/10 04:00:21;;;;;;;14.02;8.77;;;14.20;99.90;;;;;;5028271;28;20045;-61
2022/07/10 04:02:48;;;;;;;15.05;9.55;;;14.20;99.90;;;;;;5008243;28;20045;-61
2022/07/10 04:05:14;;;;;;;13.98;9.38;;;14.10;99.90;;;;;;5014372;28;20075;-61
2022/07/10 04:07:40;;;;;;;19.60;9.00;;;14.20;99.90;;;;;;5007874;28;20062;-61
2022/07/10 04:10:06;;;;;;;15.27;8.85;;;14.10;99.90;;;;;;5009000;28;20029;-60
2022/07/10 04:12:32;;;;;;;17.77;8.70;;;14.10;99.90;;;;;;5010015;28;20041;-61
2022/07/10 04:14:58;;;;;;;12.90;8.75;;;14.10;99.90;;;;;;5029233;28;20030;-61
2022/07/10 04:17:23;;;;;;;15.38;9.05;;;14.20;99.90;;;;;;5010775;28;20068;-61
2022/07/10 04:19:49;;;;;;;15.95;9.02;;;14.10;99.90;;;;;;5008442;28;20065;-61
2022/07/10 04:22:14;;;;;;;20.05;8.95;;;14.10;99.90;;;;;;5006350;28;20471;-61
2022/07/10 04:24:40;;;;;;;15.52;8.88;;;14.10;99.90;;;;;;5009466;28;20056;-61
2022/07/10 04:27:06;;;;;;;13.93;8.85;;;14.20;99.90;;;;;;5005840;28;20034;-61
2022/07/10 04:29:32;;;;;;;17.95;9.77;;;14.20;99.90;;;;;;5007304;28;20026;-60
2022/07/10 04:31:58;;;;;;;15.32;8.68;;;14.30;99.90;;;;;;5007115;28;20465;-61
2022/07/10 04:34:23;;;;;;;16.15;8.80;;;14.50;99.90;;;;;;5003978;28;20026;-61
2022/07/10 04:36:49;;;;;;;14.93;9.02;;;14.50;99.90;;;;;;5009202;28;20030;-61
2022/07/10 04:39:15;;;;;;;11.75;7.50;;;14.60;99.90;;;;;;5006370;28;20428;-61
2022/07/10 04:41:40;;;;;;;14.35;8.25;;;14.70;99.90;;;;;;5011646;28;20563;-61
2022/07/10 04:44:06;;;;;;;14.18;7.80;;;14.70;99.90;;;;;;5015800;28;20393;-61
2022/07/10 04:46:31;;;;;;;16.13;8.32;;;14.60;99.90;;;;;;5007966;28;20030;-61
2022/07/10 04:48:57;;;;;;;15.88;8.38;;;14.60;99.90;;;;;;5006123;28;20033;-62
2022/07/10 04:51:23;;;;;;;11.23;7.65;;;14.60;99.90;;;;;;5006755;28;20072;-61
2022/07/10 04:53:49;;;;;;;12.07;7.30;;;14.70;99.90;;;;;;5011601;28;20624;-61
2022/07/10 04:56:15;;;;;;;15.00;7.95;;;14.70;99.90;;;;;;5006276;28;20042;-61
2022/07/10 04:58:41;;;;;;;16.65;8.25;;;14.70;99.90;;;;;;5004367;28;20041;-61
2022/07/10 05:01:07;;;;;;;11.90;7.72;;;14.70;99.90;;;;;;5010763;28;20030;-61
2022/07/10 05:03:33;;;;;;;13.30;7.63;;;14.70;99.90;;;;;;5011103;28;20052;-61
2022/07/10 05:05:58;;;;;;;11.95;7.13;;;14.80;99.90;;;;;;5019635;28;20052;-60
2022/07/10 05:08:24;;;;;;;14.60;6.97;;;14.80;99.90;;;;;;5010571;28;20042;-61
2022/07/10 05:10:50;;;;;;;12.85;6.35;;;15.00;99.90;;;;;;5011307;28;20025;-61
2022/07/10 05:13:15;;;;;;;10.85;6.07;;;15.10;99.90;;;;;;5010436;28;20060;-61
2022/07/10 05:15:41;;;;;;;9.25;6.13;;;15.20;99.90;;;;;;5011208;28;20033;-61
2022/07/10 05:18:07;;;;;;;9.20;6.13;;;15.30;99.90;;;;;;5010592;28;20026;-61
2022/07/10 05:20:33;;;;;;;10.25;6.28;;;15.50;99.90;;;;;;5009960;28;20034;-61
2022/07/10 05:22:59;;;;;;;10.70;5.60;;;15.70;99.90;;;;;;5010802;28;20053;-61
2022/07/10 05:25:26;;;;;;;9.25;5.00;;;15.90;99.90;;;;;;5011229;28;20393;-61
2022/07/10 05:27:52;;;;;;;6.50;4.57;;;16.00;99.90;;;;;;5010101;28;20038;-61
2022/07/10 05:30:17;;;;;;;10.95;4.72;;;16.00;99.90;;;;;;5011112;28;20033;-61
2022/07/10 05:32:44;;;;;;;16.65;5.35;;;16.00;99.90;;;;;;5009297;28;20026;-61
2022/07/10 05:35:11;;;;;;;16.27;5.43;;;16.00;99.90;;;;;;5010089;28;20022;-61
2022/07/10 05:37:37;;;;;;;9.73;5.18;;;15.90;99.90;;;;;;5012169;28;20038;-61
2022/07/10 05:40:03;;;;;;;9.80;4.90;;;15.80;99.90;;;;;;5010301;28;20022;-61
2022/07/10 05:42:29;;;;;;;12.15;4.97;;;15.90;99.90;;;;;;5017999;28;20040;-61
2022/07/10 05:44:55;;;;;;;9.55;4.80;;;16.00;99.90;;;;;;5011662;28;20026;-61
2022/07/10 05:47:21;;;;;;;12.25;4.95;;;16.00;99.90;;;;;;5009027;28;20029;-61
2022/07/10 05:49:46;;;;;;;9.10;4.63;;;16.10;99.90;;;;;;5010264;28;20038;-61
2022/07/10 05:52:12;;;;;;;8.02;4.63;;;16.00;99.90;;;;;;5007533;28;20463;-61
2022/07/10 05:54:38;;;;;;;8.18;4.45;;;16.00;99.90;;;;;;5009751;28;20562;-61
2022/07/10 05:57:04;;;;;;;9.75;3.85;;;16.10;99.90;;;;;;5009227;28;20399;-61
2022/07/10 05:59:34;;;;;;;8.85;3.50;;;16.30;99.90;;;;;;5009684;28;20070;-61
2022/07/10 06:02:00;;;;;;;7.97;3.53;;;16.60;99.90;;;;;;5009084;28;20063;-61
2022/07/10 06:04:26;;;;;;;8.63;3.90;;;16.70;99.90;;;;;;5007441;28;20287;-61
2022/07/10 06:06:52;;;;;;;7.65;3.58;;;16.70;99.90;;;;;;5009486;28;20033;-61
2022/07/10 06:09:18;;;;;;;6.72;2.92;;;16.70;99.90;;;;;;5007458;28;20030;-61
2022/07/10 06:11:45;;;;;;;8.88;3.00;;;17.00;99.90;;;;;;5008452;28;20752;-61
2022/07/10 06:14:14;;;;;;;16.42;2.80;;;17.20;99.90;;;;;;5009502;28;20048;-61
2022/07/10 06:16:39;;;;;;;5.63;2.47;;;17.30;99.90;;;;;;5016390;28;20034;-61
2022/07/10 06:19:05;;;;;;;13.52;3.00;;;17.50;99.90;;;;;;5011464;28;20153;-61
2022/07/10 06:21:31;;;;;;;4.45;2.63;;;17.60;99.90;;;;;;5010034;28;20117;-61
2022/07/10 06:23:57;;;;;;;6.57;2.45;;;17.60;99.90;;;;;;5010053;28;20121;-61
2022/07/10 06:26:23;;;;;;;10.65;2.38;;;17.50;99.90;;;;;;5008524;28;20117;-61
2022/07/10 06:28:48;;;;;;;8.85;3.10;;;17.30;99.90;;;;;;5009364;28;20076;-61
2022/07/10 06:31:14;;;;;;;7.75;2.85;;;17.00;99.90;;;;;;5009864;28;20486;-61
2022/07/10 06:33:40;;;;;;;9.55;3.17;;;16.80;99.90;;;;;;5017163;28;20022;-61
2022/07/10 06:36:06;;;;;;;14.35;3.10;;;16.80;99.90;;;;;;5010407;28;20037;-61
2022/07/10 06:38:32;;;;;;;6.80;3.00;;;16.80;99.90;;;;;;5013069;28;20021;-61
2022/07/10 06:40:57;;;;;;;9.40;2.97;;;16.80;99.90;;;;;;5022207;28;20033;-61
2022/07/10 06:43:23;;;;;;;3.75;2.00;;;16.80;99.90;;;;;;5015807;28;20144;-61
2022/07/10 06:45:49;;;;;;;5.50;2.33;;;16.70;99.90;;;;;;5016199;28;20104;-61
2022/07/10 06:48:15;;;;;;;8.48;2.47;;;16.60;99.90;;;;;;5017934;28;20112;-61
2022/07/10 06:50:41;;;;;;;6.43;1.85;;;16.60;99.90;;;;;;5012396;28;20030;-61
2022/07/10 06:53:07;;;;;;;6.35;1.55;;;16.80;99.90;;;;;;5006222;28;20034;-61
2022/07/10 06:55:33;;;;;;;4.50;2.05;;;16.90;99.90;;;;;;5004745;28;20777;-61
2022/07/10 06:57:59;;;;;;;4.70;1.85;;;17.10;99.90;;;;;;5005168;28;20034;-61
2022/07/10 07:00:25;;;;;;;5.45;1.98;;;17.00;99.90;;;;;;5006798;28;20022;-61
2022/07/10 07:02:51;;;;;;;10.88;2.00;;;17.00;99.90;;;;;;5012591;28;20049;-61
2022/07/10 07:05:17;;;;;;;9.88;2.08;;;17.10;99.90;;;;;;5002659;28;20026;-61
2022/07/10 07:07:43;;;;;;;7.38;1.98;;;17.30;99.90;;;;;;5009166;28;20034;-61
2022/07/10 07:10:10;;;;;;;7.75;1.67;;;17.40;99.90;;;;;;5010148;28;20044;-61
2022/07/10 07:12:36;;;;;;;3.45;1.63;;;17.50;99.90;;;;;;5009208;28;20029;-61
2022/07/10 07:15:02;;;;;;;6.90;1.60;;;17.50;99.90;;;;;;5010112;28;20030;-61
2022/07/10 07:17:35;;;;;;;8.43;1.65;;;17.50;99.90;;;;;;5009167;28;20480;-61
2022/07/10 07:25:30;;;;;;;4.90;1.70;;;18.00;99.90;;;;;;5009145;28;20032;-61
2022/07/10 07:27:56;;;;;;;2.20;1.20;;;18.20;99.90;;;;;;5009511;28;20038;-61
2022/07/10 07:30:21;;;;;;;7.50;1.50;;;18.20;99.90;;;;;;5009018;28;20080;-61
2022/07/10 07:32:47;;;;;;;5.18;1.65;;;18.10;99.90;;;;;;5009820;28;20038;-61
2022/07/10 07:35:15;;;;;;;11.23;1.55;;;18.20;99.90;;;;;;5009802;28;20156;-61
2022/07/10 07:37:46;;;;;;;3.90;1.15;;;18.30;99.90;;;;;;5007232;28;20034;-61
2022/07/10 07:40:22;;;;;;;4.80;1.50;;;18.30;99.90;;;;;;5009689;28;20040;-61
2022/07/10 07:42:48;;;;;;;9.63;1.50;;;18.30;99.90;;;;;;5009443;28;20045;-60
2022/07/10 07:45:14;;;;;;;4.63;1.55;;;18.00;99.90;;;;;;5009361;28;20593;-61
2022/07/10 07:47:49;;;;;;;5.15;1.48;;;17.80;99.90;;;;;;5008827;28;20025;-61
2022/07/10 07:50:19;;;;;;;6.55;1.85;;;17.70;99.90;;;;;;5009723;28;20068;-61
2022/07/10 07:52:45;;;;;;;3.90;1.43;;;17.70;99.90;;;;;;5008800;28;20038;-61
2022/07/10 07:55:14;;;;;;;6.05;1.35;;;17.80;99.90;;;;;;5008444;28;20305;-61
2022/07/10 07:57:40;;;;;;;7.53;1.50;;;18.10;99.90;;;;;;5008759;28;20034;-61
2022/07/10 08:00:07;;;;;;;2.05;1.40;;;18.00;99.90;;;;;;5009627;28;20064;-61
2022/07/10 08:02:33;;;;;;;11.77;1.55;;;17.90;99.90;;;;;;5008660;28;20041;-61
2022/07/10 08:04:59;;;;;;;8.52;1.75;;;17.70;99.90;;;;;;5009554;28;20056;-60
2022/07/10 08:07:39;;;;;;;5.45;1.70;;;17.70;99.90;;;;;;5002574;28;20463;-61
2022/07/10 08:10:07;;;;;;;4.60;1.77;;;17.60;99.90;;;;;;5003960;28;20113;-61
2022/07/10 08:12:33;;;;;;;4.93;1.60;;;17.50;99.90;;;;;;5007017;28;20485;-61
2022/07/10 08:14:59;;;;;;;4.70;1.75;;;17.50;99.90;;;;;;5011841;28;20025;-61
2022/07/10 08:17:26;;;;;;;6.35;2.25;;;17.50;99.90;;;;;;5010094;28;20040;-61
2022/07/10 08:19:52;;;;;;;4.10;1.42;;;17.40;99.90;;;;;;5021048;28;20124;-61
2022/07/10 08:22:18;;;;;;;3.45;1.60;;;17.30;99.90;;;;;;5013558;28;20458;-61
2022/07/10 08:24:43;;;;;;;4.40;1.60;;;17.30;99.90;;;;;;5013638;28;20234;-61
2022/07/10 08:27:09;;;;;;;12.13;1.50;;;17.20;99.90;;;;;;5011327;28;20038;-61
2022/07/10 08:29:35;;;;;;;4.97;1.30;;;17.30;99.90;;;;;;5019128;28;20030;-61
2022/07/10 08:32:01;;;;;;;6.85;1.73;;;17.40;99.90;;;;;;5017544;28;20037;-61
2022/07/10 08:34:27;;;;;;;6.13;1.77;;;17.70;99.90;;;;;;5009334;28;20112;-61
2022/07/10 08:36:53;;;;;;;5.10;1.50;;;17.80;99.90;;;;;;5015381;28;20030;-61
2022/07/10 08:39:22;;;;;;;3.38;1.40;;;18.00;99.90;;;;;;5010430;28;20372;-61
2022/07/10 08:41:50;;;;;;;5.43;1.40;;;18.30;99.90;;;;;;5011864;28;20466;-61
2022/07/10 08:44:21;;;;;;;7.05;1.40;;;18.40;99.90;;;;;;5018391;28;20246;-61
2022/07/10 08:46:47;;;;;;;4.70;1.70;;;18.50;99.90;;;;;;5017407;28;20030;-61
2022/07/10 08:49:16;;;;;;;4.30;1.50;;;18.50;99.90;;;;;;5018474;28;20056;-61
2022/07/10 08:52:17;;;;;;;6.47;1.90;;;18.70;99.90;;;;;;5023337;28;20065;-60
2022/07/10 08:54:44;;;;;;;6.25;1.90;;;18.50;99.90;;;;;;4989607;28;20046;-61
2022/07/10 08:57:11;;;;;;;3.20;1.58;;;18.20;99.90;;;;;;4998602;28;20080;-61
2022/07/10 08:59:36;;;;;;;8.13;2.03;;;17.90;99.90;;;;;;5009465;28;20029;-61
2022/07/10 09:02:02;;;;;;;8.18;1.60;;;17.80;99.90;;;;;;5012687;28;20389;-61
2022/07/10 09:04:28;;;;;;;5.80;1.67;;;17.60;99.90;;;;;;5010363;28;20119;-61
2022/07/10 09:06:55;;;;;;;8.52;1.90;;;17.40;99.90;;;;;;5011452;28;20116;-61
2022/07/10 09:09:21;;;;;;;7.20;1.92;;;17.40;99.90;;;;;;5011577;28;20025;-61
2022/07/10 09:11:46;;;;;;;5.13;1.83;;;17.60;99.90;;;;;;5010506;28;20038;-61
2022/07/10 09:14:17;;;;;;;7.63;2.20;;;17.80;99.90;;;;;;5007796;28;20034;-61
2022/07/10 09:16:50;;;;;;;6.32;2.10;;;18.00;99.90;;;;;;5010246;28;20018;-61
2022/07/10 09:19:19;;;;;;;4.38;1.83;;;18.00;99.90;;;;;;5008031;28;20449;-61
2022/07/10 09:21:47;;;;;;;5.63;1.98;;;18.20;99.90;;;;;;5010319;28;20046;-61
2022/07/10 09:24:13;;;;;;;5.63;2.00;;;18.00;99.90;;;;;;5009521;28;20108;-61
2022/07/10 09:26:40;;;;;;;5.03;2.10;;;18.10;99.90;;;;;;5004679;28;20049;-61
2022/07/10 09:29:12;;;;;;;6.35;2.08;;;18.20;99.90;;;;;;5009250;28;20360;-61
2022/07/10 09:31:54;;;;;;;3.10;1.60;;;18.40;99.90;;;;;;5012658;28;20041;-61
2022/07/10 09:34:39;;;;;;;4.53;1.70;;;18.30;99.90;;;;;;5016014;28;20033;-61
2022/07/10 09:37:26;;;;;;;4.40;1.85;;;18.30;99.90;;;;;;5012993;28;20063;-61
2022/07/10 09:39:52;;;;;;;3.70;1.60;;;18.30;99.90;;;;;;5008377;28;20437;-61
2022/07/10 09:42:42;;;;;;;6.15;2.60;;;18.50;99.90;;;;;;5010177;28;20029;-61
2022/07/10 09:45:12;;;;;;;8.27;1.97;;;18.90;99.90;;;;;;5010520;28;21879;-61
2022/07/10 09:47:38;;;;;;;8.70;1.70;;;19.40;99.90;;;;;;5016465;28;20041;-61
2022/07/10 09:50:18;;;;;;;6.97;1.92;;;20.10;99.90;;;;;;5011594;28;20124;-61
2022/07/10 09:52:45;;;;;;;7.18;1.92;;;20.10;99.90;;;;;;5008785;28;20676;-61
2022/07/10 09:55:13;;;;;;;2.85;1.85;;;20.20;99.90;;;;;;5010672;28;20145;-61
2022/07/10 09:57:43;;;;;;;3.75;1.60;;;20.10;99.90;;;;;;5015872;28;20040;-61
2022/07/10 10:00:10;;;;;;;6.47;1.70;;;19.80;98.10;;;;;;5006953;28;21626;-61
2022/07/10 10:02:38;;;;;;;5.57;1.73;;;19.40;99.80;;;;;;5003469;28;20684;-61
2022/07/10 10:05:05;;;;;;;4.65;1.85;;;19.00;99.90;;;;;;5018056;28;20668;-60
2022/07/10 10:07:35;;;;;;;8.07;1.80;;;19.20;99.90;;;;;;5006179;28;20061;-61
2022/07/10 10:10:03;;;;;;;7.70;2.28;;;19.40;99.90;;;;;;5005806;28;21257;-61
2022/07/10 10:12:48;;;;;;;4.63;1.75;;;19.50;99.90;;;;;;5005884;28;20049;-61
2022/07/10 10:15:15;;;;;;;3.70;1.63;;;19.30;99.50;;;;;;5011268;28;20045;-61
2022/07/10 10:17:42;;;;;;;5.53;1.70;;;19.20;99.90;;;;;;5005301;28;20070;-60
2022/07/10 10:22:56;;;;;;;8.48;1.83;;;19.00;98.80;;;;;;5006653;28;20108;-60
2022/07/10 10:25:24;;;;;;;3.80;1.75;;;19.00;99.90;;;;;;5009504;28;20117;-60
2022/07/10 10:27:50;;;;;;;5.45;1.88;;;19.10;97.00;;;;;;5008893;28;20092;-60
2022/07/10 10:30:17;;;;;;;3.42;1.80;;;19.00;99.00;;;;;;5009146;28;20071;-61
2022/07/10 10:32:43;;;;;;;6.72;1.75;;;19.10;99.90;;;;;;5007249;28;20038;-61
2022/07/10 10:35:15;;;;;;;3.97;1.55;;;19.10;99.70;;;;;;5006582;28;20048;-60
2022/07/10 10:37:43;;;;;;;3.25;1.88;;;19.10;99.40;;;;;;5015621;28;20421;-61
2022/07/10 10:40:29;;;;;;;7.13;1.80;;;19.60;99.90;;;;;;5008023;28;20037;-61
2022/07/10 10:42:55;;;;;;;3.42;1.60;;;20.10;98.20;;;;;;5027374;28;20486;-61
2022/07/10 10:45:31;;;;;;;4.50;1.50;;;20.50;96.50;;;;;;5009644;28;20041;-61
2022/07/10 10:48:10;;;;;;;3.60;1.65;;;20.60;98.30;;;;;;5012448;28;20125;-61
2022/07/10 10:50:54;;;;;;;4.40;1.67;;;20.30;97.60;;;;;;5019751;28;20106;-61
2022/07/10 10:53:20;;;;;;;3.58;1.38;;;20.20;97.80;;;;;;5006425;28;20033;-61
2022/07/10 10:56:04;;;;;;;5.97;1.80;;;20.20;96.80;;;;;;5022719;28;20128;-60
2022/07/10 10:58:43;;;;;;;4.72;1.90;;;20.10;96.90;;;;;;5007248;28;20053;-61
2022/07/10 11:01:21;;;;;;;2.42;1.40;;;20.70;97.30;;;;;;5009525;28;20541;-61
2022/07/10 11:04:07;;;;;;;3.00;1.48;;;20.90;94.20;;;;;;5007106;28;20037;-61
2022/07/10 11:06:49;;;;;;;2.80;1.48;;;20.80;94.60;;;;;;5007501;28;20517;-61
2022/07/10 11:09:26;;;;;;;5.63;1.50;;;20.50;95.00;;;;;;5008227;28;20033;-60
2022/07/10 11:12:06;;;;;;;3.97;1.50;;;20.40;98.20;;;;;;5001565;28;20556;-61
2022/07/10 11:14:47;;;;;;;3.65;1.55;;;20.80;98.00;;;;;;5012412;28;20083;-61
2022/07/10 11:17:13;;;;;;;3.40;1.20;;;21.00;97.20;;;;;;5022820;28;20037;-61
2022/07/10 11:19:39;;;;;;;3.45;1.50;;;21.30;95.30;;;;;;5011538;28;20034;-61
2022/07/10 11:22:17;;;;;;;3.25;1.33;;;21.40;94.60;;;;;;5010740;28;20091;-61
2022/07/10 11:24:49;;;;;;;5.35;1.48;;;21.50;94.20;;;;;;5003857;28;20040;-61
2022/07/10 11:27:48;;;;;;;4.18;2.15;;;21.40;91.80;;;;;;5004497;28;20061;-61
2022/07/10 11:30:13;;;;;;;3.40;1.23;;;21.40;92.20;;;;;;4999408;28;20030;-61
2022/07/10 11:32:39;;;;;;;6.03;1.55;;;21.20;91.40;;;;;;5006755;28;20048;-61
2022/07/10 11:35:14;;;;;;;4.65;1.45;;;20.70;93.60;;;;;;5005921;28;20088;-61
2022/07/10 11:37:51;;;;;;;4.15;1.42;;;20.20;94.90;;;;;;5007027;28;20049;-61
2022/07/10 11:40:19;;;;;;;4.55;1.38;;;20.10;94.10;;;;;;5008469;28;20438;-61
2022/07/10 11:42:55;;;;;;;2.92;1.50;;;20.00;95.10;;;;;;5006156;28;20052;-61
2022/07/10 11:45:24;;;;;;;10.88;1.65;;;20.40;94.20;;;;;;5006377;28;20056;-61
2022/07/10 11:47:50;;;;;;;3.58;1.40;;;20.50;94.90;;;;;;5006458;28;20022;-61
2022/07/10 11:50:16;;;;;;;2.08;1.10;;;20.90;92.00;;;;;;5004319;28;20064;-61
2022/07/10 11:52:42;;;;;;;9.52;1.42;;;21.00;90.90;;;;;;5006247;28;20037;-61
2022/07/10 11:55:19;;;;;;;6.45;1.20;;;21.00;93.70;;;;;;5003562;28;20072;-61
2022/07/10 11:57:48;;;;;;;4.40;1.30;;;21.10;91.70;;;;;;5008925;28;20029;-61
2022/07/10 12:00:26;;;;;;;4.60;1.67;;;20.70;91.40;;;;;;5008815;28;20080;-61
2022/07/10 12:02:53;;;;;;;4.40;1.48;;;20.60;92.70;;;;;;5007417;28;20034;-61
2022/07/10 12:05:36;;;;;;;4.22;1.40;;;20.30;92.10;;;;;;5008235;28;20043;-61
2022/07/10 12:08:03;;;;;;;1.40;0.93;;;20.50;93.90;;;;;;5009567;28;20572;-61
2022/07/10 12:10:30;;;;;;;3.45;1.10;;;20.90;93.80;;;;;;5005406;28;20049;-61
2022/07/10 12:13:12;;;;;;;4.47;1.20;;;21.40;92.40;;;;;;5007544;28;20033;-60
2022/07/10 12:15:46;;;;;;;4.60;1.30;;;21.30;82.90;;;;;;5003238;28;20610;-61
2022/07/10 12:18:19;;;;;;;3.33;1.10;;;21.00;86.20;;;;;;5009297;28;20382;-61
2022/07/10 12:20:47;;;;;;;2.78;1.10;;;20.50;88.20;;;;;;5008949;28;20463;-61
2022/07/10 12:23:17;;;;;;;3.67;1.30;;;20.40;91.00;;;;;;5009363;28;20037;-61
2022/07/10 12:25:43;;;;;;;7.05;1.50;;;20.20;93.00;;;;;;5007907;28;20100;-61
2022/07/10 12:28:09;;;;;;;3.17;1.23;;;20.20;94.20;;;;;;5009343;28;20088;-61
2022/07/10 12:30:40;;;;;;;2.53;1.30;;;20.30;93.00;;;;;;5008531;28;20026;-61
2022/07/10 12:33:15;;;;;;;3.67;1.20;;;20.90;93.70;;;;;;5009447;28;20022;-61
2022/07/10 12:35:51;;;;;;;2.45;1.30;;;21.70;92.20;;;;;;5008442;28;20038;-61
2022/07/10 12:38:20;;;;;;;3.67;1.48;;;21.90;86.00;;;;;;5009262;28;20030;-61
2022/07/10 12:40:46;;;;;;;3.42;1.20;;;22.20;87.70;;;;;;5006930;28;20042;-61
2022/07/10 12:43:12;;;;;;;1.90;1.20;;;22.60;86.90;;;;;;5007787;28;20497;-61
2022/07/10 12:45:38;;;;;;;1.77;0.80;;;23.10;88.90;;;;;;5008387;28;20030;-61
2022/07/10 12:48:08;;;;;;;4.45;1.08;;;23.10;86.80;;;;;;5009249;28;20080;-61
2022/07/10 12:50:33;;;;;;;2.97;1.10;;;23.40;80.30;;;;;;5008537;28;20022;-61
2022/07/10 12:53:11;;;;;;;4.40;1.45;;;23.50;81.00;;;;;;5008812;28;20095;-61
2022/07/10 12:55:38;;;;;;;5.47;1.27;;;23.40;81.70;;;;;;5006819;28;20054;-61
2022/07/10 12:58:09;;;;;;;3.65;1.30;;;23.30;78.70;;;;;;5009025;28;20038;-61